Terminal Aerodrome Forecast
Issued by NWS Buffalo, NY

Home | Current Version | Previous Version | Text Only | Print | Product List | Glossary On
Versions: 1 2 3 4 5 6 7 8 9 10 11 12 13 14 15 16 17 18 19 20 21 22 23
000
FTUS41 KBUF 290901 AAA
TAFROC
TAF AMD
KROC 290901Z 2909/3006 08008KT P6SM -SHRA OVC040
     FM291000 09009KT P6SM VCSH OVC060
     FM291400 08011G17KT P6SM -SHRA OVC025
     FM291700 08013KT P6SM VCSH OVC045
     FM292100 08013KT P6SM OVC045=

USA.gov is the U.S. government's official web portal to all federal, state and local government web resources and services.